Terminal Aerodrome Forecast
Issued by NWS Portland, OR

Home | Current Version | Previous Version | Text Only | Print | Product List | Glossary On
Versions: 1 2 3 4 5 6 7 8 9 10 11 12 13 14 15
000
FTUS46 KPQR 182331
TAFTTD
TAF
KTTD 182331Z 1900/1924 32006KT P6SM FEW250
     FM190800 30003KT P6SM BKN025
     FM191000 00000KT P6SM OVC018
     FM191800 31003KT P6SM SCT020=

USA.gov is the U.S. government's official web portal to all federal, state and local government web resources and services.